sensor_id;sensor_type;location;lat;lon;timestamp;P1;durP1;ratioP1;P2;durP2;ratioP2
73154;SDS011;61364;52.418;7.382;2022-12-08T00:00:25;13.03;;;13.03;;
73154;SDS011;61364;52.418;7.382;2022-12-08T00:02:51;16.13;;;16.04;;
73154;SDS011;61364;52.418;7.382;2022-12-08T00:05:25;16.30;;;16.27;;
73154;SDS011;61364;52.418;7.382;2022-12-08T00:08:09;19.13;;;19.05;;
73154;SDS011;61364;52.418;7.382;2022-12-08T00:13:56;36.52;;;35.43;;
73154;SDS011;61364;52.418;7.382;2022-12-08T00:19:24;17.76;;;17.60;;
73154;SDS011;61364;52.418;7.382;2022-12-08T00:24:54;10.16;;;10.16;;
73154;SDS011;61364;52.418;7.382;2022-12-08T00:27:27;8.65;;;8.65;;
73154;SDS011;61364;52.418;7.382;2022-12-08T00:29:52;8.05;;;8.05;;
73154;SDS011;61364;52.418;7.382;2022-12-08T00:32:18;7.94;;;7.94;;
73154;SDS011;61364;52.418;7.382;2022-12-08T00:34:44;6.70;;;6.70;;
73154;SDS011;61364;52.418;7.382;2022-12-08T00:37:09;5.95;;;5.95;;
73154;SDS011;61364;52.418;7.382;2022-12-08T00:42:44;6.08;;;6.08;;
73154;SDS011;61364;52.418;7.382;2022-12-08T00:45:10;5.83;;;5.83;;
73154;SDS011;61364;52.418;7.382;2022-12-08T00:50:20;6.35;;;6.35;;
73154;SDS011;61364;52.418;7.382;2022-12-08T00:52:51;6.66;;;6.66;;
73154;SDS011;61364;52.418;7.382;2022-12-08T00:55:17;7.02;;;7.02;;
73154;SDS011;61364;52.418;7.382;2022-12-08T00:57:43;7.79;;;7.79;;
73154;SDS011;61364;52.418;7.382;2022-12-08T01:00:14;8.15;;;8.15;;
73154;SDS011;61364;52.418;7.382;2022-12-08T01:02:40;9.93;;;9.93;;
73154;SDS011;61364;52.418;7.382;2022-12-08T01:05:07;10.70;;;10.70;;
73154;SDS011;61364;52.418;7.382;2022-12-08T01:07:33;11.71;;;11.71;;
73154;SDS011;61364;52.418;7.382;2022-12-08T01:09:58;12.47;;;12.47;;
73154;SDS011;61364;52.418;7.382;2022-12-08T01:12:24;12.80;;;12.80;;
73154;SDS011;61364;52.418;7.382;2022-12-08T01:14:50;13.30;;;13.30;;
73154;SDS011;61364;52.418;7.382;2022-12-08T01:17:15;13.88;;;13.88;;
73154;SDS011;61364;52.418;7.382;2022-12-08T01:19:43;13.70;;;13.70;;
73154;SDS011;61364;52.418;7.382;2022-12-08T01:22:09;13.77;;;13.77;;
73154;SDS011;61364;52.418;7.382;2022-12-08T01:24:34;14.27;;;14.27;;
73154;SDS011;61364;52.418;7.382;2022-12-08T01:29:46;14.44;;;14.44;;
73154;SDS011;61364;52.418;7.382;2022-12-08T01:32:11;14.58;;;14.58;;
73154;SDS011;61364;52.418;7.382;2022-12-08T01:37:40;13.56;;;13.56;;
73154;SDS011;61364;52.418;7.382;2022-12-08T01:40:13;13.77;;;13.77;;
73154;SDS011;61364;52.418;7.382;2022-12-08T01:42:39;13.90;;;13.90;;
73154;SDS011;61364;52.418;7.382;2022-12-08T01:48:04;13.60;;;13.60;;
73154;SDS011;61364;52.418;7.382;2022-12-08T01:50:38;13.81;;;13.81;;
73154;SDS011;61364;52.418;7.382;2022-12-08T01:53:09;13.88;;;13.88;;
73154;SDS011;61364;52.418;7.382;2022-12-08T02:01:42;13.92;;;13.92;;
73154;SDS011;61364;52.418;7.382;2022-12-08T02:04:08;14.08;;;14.08;;
73154;SDS011;61364;52.418;7.382;2022-12-08T02:06:35;14.26;;;14.26;;
73154;SDS011;61364;52.418;7.382;2022-12-08T02:12:07;14.93;;;14.93;;
73154;SDS011;61364;52.418;7.382;2022-12-08T02:14:34;14.04;;;14.04;;
73154;SDS011;61364;52.418;7.382;2022-12-08T02:17:05;13.95;;;13.95;;
73154;SDS011;61364;52.418;7.382;2022-12-08T02:26:25;14.23;;;14.23;;
73154;SDS011;61364;52.418;7.382;2022-12-08T02:29:10;14.40;;;14.40;;
73154;SDS011;61364;52.418;7.382;2022-12-08T02:39:33;15.18;;;15.18;;
73154;SDS011;61364;52.418;7.382;2022-12-08T02:42:11;14.83;;;14.83;;
73154;SDS011;61364;52.418;7.382;2022-12-08T02:44:46;15.03;;;15.03;;
73154;SDS011;61364;52.418;7.382;2022-12-08T02:47:16;14.53;;;14.53;;
73154;SDS011;61364;52.418;7.382;2022-12-08T02:49:43;14.78;;;14.78;;
73154;SDS011;61364;52.418;7.382;2022-12-08T02:57:46;16.43;;;16.43;;
73154;SDS011;61364;52.418;7.382;2022-12-08T03:09:02;19.32;;;19.32;;
73154;SDS011;61364;52.418;7.382;2022-12-08T03:16:48;19.01;;;19.01;;
73154;SDS011;61364;52.418;7.382;2022-12-08T03:25:13;18.93;;;18.93;;
73154;SDS011;61364;52.418;7.382;2022-12-08T03:27:41;18.84;;;18.84;;
73154;SDS011;61364;52.418;7.382;2022-12-08T03:30:08;18.95;;;18.95;;
73154;SDS011;61364;52.418;7.382;2022-12-08T03:35:10;20.14;;;20.14;;
73154;SDS011;61364;52.418;7.382;2022-12-08T03:37:39;19.97;;;19.97;;
73154;SDS011;61364;52.418;7.382;2022-12-08T03:42:56;19.76;;;19.76;;
73154;SDS011;61364;52.418;7.382;2022-12-08T03:45:21;20.05;;;20.05;;
73154;SDS011;61364;52.418;7.382;2022-12-08T03:50:50;20.24;;;20.24;;
73154;SDS011;61364;52.418;7.382;2022-12-08T03:53:15;20.58;;;20.58;;
73154;SDS011;61364;52.418;7.382;2022-12-08T03:55:41;21.29;;;21.29;;
73154;SDS011;61364;52.418;7.382;2022-12-08T03:58:07;21.01;;;21.01;;
73154;SDS011;61364;52.418;7.382;2022-12-08T04:00:32;21.50;;;21.50;;
73154;SDS011;61364;52.418;7.382;2022-12-08T04:02:58;22.05;;;22.05;;
73154;SDS011;61364;52.418;7.382;2022-12-08T04:05:36;22.03;;;22.03;;
73154;SDS011;61364;52.418;7.382;2022-12-08T04:10:32;20.68;;;20.68;;
73154;SDS011;61364;52.418;7.382;2022-12-08T04:12:57;20.48;;;20.48;;
73154;SDS011;61364;52.418;7.382;2022-12-08T04:18:18;20.14;;;20.14;;
73154;SDS011;61364;52.418;7.382;2022-12-08T04:20:44;20.03;;;20.03;;
73154;SDS011;61364;52.418;7.382;2022-12-08T04:23:12;20.40;;;20.34;;
73154;SDS011;61364;52.418;7.382;2022-12-08T04:25:38;20.06;;;20.06;;
73154;SDS011;61364;52.418;7.382;2022-12-08T04:28:04;20.65;;;20.65;;
73154;SDS011;61364;52.418;7.382;2022-12-08T04:30:30;20.06;;;20.00;;
73154;SDS011;61364;52.418;7.382;2022-12-08T04:35:59;19.29;;;19.29;;
73154;SDS011;61364;52.418;7.382;2022-12-08T04:38:37;19.22;;;19.22;;
73154;SDS011;61364;52.418;7.382;2022-12-08T04:41:03;19.31;;;19.31;;
73154;SDS011;61364;52.418;7.382;2022-12-08T04:43:28;18.91;;;18.91;;
73154;SDS011;61364;52.418;7.382;2022-12-08T04:45:54;19.36;;;19.36;;
73154;SDS011;61364;52.418;7.382;2022-12-08T04:48:20;19.61;;;19.61;;
73154;SDS011;61364;52.418;7.382;2022-12-08T04:50:46;19.33;;;19.30;;
73154;SDS011;61364;52.418;7.382;2022-12-08T05:02:11;17.49;;;17.49;;
73154;SDS011;61364;52.418;7.382;2022-12-08T05:07:13;17.42;;;17.42;;
73154;SDS011;61364;52.418;7.382;2022-12-08T05:09:39;17.28;;;17.28;;
73154;SDS011;61364;52.418;7.382;2022-12-08T05:12:04;17.39;;;17.39;;
73154;SDS011;61364;52.418;7.382;2022-12-08T05:17:33;16.11;;;16.11;;
73154;SDS011;61364;52.418;7.382;2022-12-08T05:19:58;16.46;;;16.46;;
73154;SDS011;61364;52.418;7.382;2022-12-08T05:25:26;16.21;;;16.21;;
73154;SDS011;61364;52.418;7.382;2022-12-08T05:27:52;15.25;;;15.25;;
73154;SDS011;61364;52.418;7.382;2022-12-08T05:33:26;13.72;;;13.72;;
73154;SDS011;61364;52.418;7.382;2022-12-08T05:35:52;13.78;;;13.78;;
73154;SDS011;61364;52.418;7.382;2022-12-08T05:41:06;13.64;;;13.63;;
73154;SDS011;61364;52.418;7.382;2022-12-08T05:46:26;13.55;;;13.55;;
73154;SDS011;61364;52.418;7.382;2022-12-08T05:48:51;13.28;;;13.28;;
73154;SDS011;61364;52.418;7.382;2022-12-08T05:51:23;12.93;;;12.93;;
73154;SDS011;61364;52.418;7.382;2022-12-08T05:53:49;12.89;;;12.89;;
73154;SDS011;61364;52.418;7.382;2022-12-08T05:56:15;12.59;;;12.59;;
73154;SDS011;61364;52.418;7.382;2022-12-08T06:01:41;11.59;;;11.59;;
73154;SDS011;61364;52.418;7.382;2022-12-08T06:07:09;10.66;;;10.66;;
73154;SDS011;61364;52.418;7.382;2022-12-08T06:09:35;10.90;;;10.90;;
73154;SDS011;61364;52.418;7.382;2022-12-08T06:12:00;10.98;;;10.98;;
73154;SDS011;61364;52.418;7.382;2022-12-08T06:17:06;10.94;;;10.94;;
73154;SDS011;61364;52.418;7.382;2022-12-08T06:19:42;10.78;;;10.76;;
73154;SDS011;61364;52.418;7.382;2022-12-08T06:22:08;11.25;;;11.24;;
73154;SDS011;61364;52.418;7.382;2022-12-08T06:24:34;11.30;;;11.30;;
73154;SDS011;61364;52.418;7.382;2022-12-08T06:27:00;11.20;;;11.19;;
73154;SDS011;61364;52.418;7.382;2022-12-08T06:29:26;11.04;;;11.04;;
73154;SDS011;61364;52.418;7.382;2022-12-08T06:34:52;11.81;;;11.77;;
73154;SDS011;61364;52.418;7.382;2022-12-08T06:37:18;11.98;;;11.82;;
73154;SDS011;61364;52.418;7.382;2022-12-08T06:42:39;12.01;;;12.01;;
73154;SDS011;61364;52.418;7.382;2022-12-08T06:45:23;12.08;;;12.08;;
73154;SDS011;61364;52.418;7.382;2022-12-08T06:47:49;12.08;;;12.08;;
73154;SDS011;61364;52.418;7.382;2022-12-08T06:50:15;12.33;;;12.33;;
73154;SDS011;61364;52.418;7.382;2022-12-08T06:55:43;12.29;;;12.29;;
73154;SDS011;61364;52.418;7.382;2022-12-08T06:58:09;11.75;;;11.75;;
73154;SDS011;61364;52.418;7.382;2022-12-08T07:00:35;11.41;;;11.41;;
73154;SDS011;61364;52.418;7.382;2022-12-08T07:05:32;11.04;;;11.04;;
73154;SDS011;61364;52.418;7.382;2022-12-08T07:11:14;10.88;;;10.86;;
73154;SDS011;61364;52.418;7.382;2022-12-08T07:13:40;11.12;;;11.12;;
73154;SDS011;61364;52.418;7.382;2022-12-08T07:16:23;10.71;;;10.71;;
73154;SDS011;61364;52.418;7.382;2022-12-08T07:18:48;11.55;;;11.33;;
73154;SDS011;61364;52.418;7.382;2022-12-08T07:27:09;10.82;;;10.82;;
73154;SDS011;61364;52.418;7.382;2022-12-08T07:32:04;10.28;;;10.28;;
73154;SDS011;61364;52.418;7.382;2022-12-08T07:34:44;10.10;;;10.10;;
73154;SDS011;61364;52.418;7.382;2022-12-08T07:37:09;10.07;;;10.07;;
73154;SDS011;61364;52.418;7.382;2022-12-08T07:39:44;10.39;;;10.39;;
73154;SDS011;61364;52.418;7.382;2022-12-08T07:42:27;10.59;;;10.59;;
73154;SDS011;61364;52.418;7.382;2022-12-08T07:44:53;10.38;;;10.38;;
73154;SDS011;61364;52.418;7.382;2022-12-08T07:47:19;9.81;;;9.80;;
73154;SDS011;61364;52.418;7.382;2022-12-08T07:49:45;9.98;;;9.98;;
73154;SDS011;61364;52.418;7.382;2022-12-08T07:55:13;9.38;;;9.38;;
73154;SDS011;61364;52.418;7.382;2022-12-08T07:57:50;9.08;;;9.08;;
73154;SDS011;61364;52.418;7.382;2022-12-08T08:00:16;8.96;;;8.85;;
73154;SDS011;61364;52.418;7.382;2022-12-08T08:02:58;8.43;;;8.43;;
73154;SDS011;61364;52.418;7.382;2022-12-08T08:05:24;8.49;;;8.48;;
73154;SDS011;61364;52.418;7.382;2022-12-08T08:07:49;8.62;;;8.62;;
73154;SDS011;61364;52.418;7.382;2022-12-08T08:10:15;8.12;;;8.12;;
73154;SDS011;61364;52.418;7.382;2022-12-08T08:12:41;7.85;;;7.85;;
73154;SDS011;61364;52.418;7.382;2022-12-08T08:15:21;8.13;;;8.11;;
73154;SDS011;61364;52.418;7.382;2022-12-08T08:17:50;8.45;;;8.38;;
73154;SDS011;61364;52.418;7.382;2022-12-08T08:20:16;7.95;;;7.95;;
73154;SDS011;61364;52.418;7.382;2022-12-08T08:22:44;8.05;;;8.05;;
73154;SDS011;61364;52.418;7.382;2022-12-08T08:25:09;8.43;;;8.43;;
73154;SDS011;61364;52.418;7.382;2022-12-08T08:30:38;9.02;;;9.02;;
73154;SDS011;61364;52.418;7.382;2022-12-08T08:39:05;8.56;;;8.51;;
73154;SDS011;61364;52.418;7.382;2022-12-08T08:41:31;9.42;;;8.99;;
73154;SDS011;61364;52.418;7.382;2022-12-08T08:46:48;9.64;;;9.64;;
73154;SDS011;61364;52.418;7.382;2022-12-08T08:52:02;9.24;;;9.24;;
73154;SDS011;61364;52.418;7.382;2022-12-08T08:54:29;9.14;;;9.14;;
73154;SDS011;61364;52.418;7.382;2022-12-08T08:56:56;9.08;;;9.08;;
73154;SDS011;61364;52.418;7.382;2022-12-08T09:05:16;9.40;;;9.14;;
73154;SDS011;61364;52.418;7.382;2022-12-08T09:07:42;8.64;;;8.64;;
73154;SDS011;61364;52.418;7.382;2022-12-08T09:12:44;11.13;;;11.10;;
73154;SDS011;61364;52.418;7.382;2022-12-08T09:15:09;38.76;;;38.04;;
73154;SDS011;61364;52.418;7.382;2022-12-08T09:20:24;23.06;;;22.68;;
73154;SDS011;61364;52.418;7.382;2022-12-08T09:22:50;57.28;;;56.29;;
73154;SDS011;61364;52.418;7.382;2022-12-08T09:28:18;37.89;;;36.97;;
73154;SDS011;61364;52.418;7.382;2022-12-08T09:30:44;16.81;;;16.42;;
73154;SDS011;61364;52.418;7.382;2022-12-08T09:33:09;10.36;;;10.28;;
73154;SDS011;61364;52.418;7.382;2022-12-08T09:35:35;10.77;;;10.77;;
73154;SDS011;61364;52.418;7.382;2022-12-08T09:41:04;10.47;;;10.47;;
73154;SDS011;61364;52.418;7.382;2022-12-08T09:44:06;10.67;;;10.67;;
73154;SDS011;61364;52.418;7.382;2022-12-08T09:47:00;12.49;;;12.49;;
73154;SDS011;61364;52.418;7.382;2022-12-08T09:49:50;12.17;;;12.05;;
73154;SDS011;61364;52.418;7.382;2022-12-08T09:52:24;11.88;;;11.81;;
73154;SDS011;61364;52.418;7.382;2022-12-08T09:54:56;11.94;;;11.76;;
73154;SDS011;61364;52.418;7.382;2022-12-08T09:57:26;11.89;;;11.69;;
73154;SDS011;61364;52.418;7.382;2022-12-08T10:00:00;13.33;;;13.02;;
73154;SDS011;61364;52.418;7.382;2022-12-08T10:02:28;35.87;;;32.46;;
73154;SDS011;61364;52.418;7.382;2022-12-08T10:11:03;44.93;;;40.55;;
73154;SDS011;61364;52.418;7.382;2022-12-08T10:25:00;9.95;;;9.72;;
73154;SDS011;61364;52.418;7.382;2022-12-08T10:30:20;10.89;;;10.42;;
73154;SDS011;61364;52.418;7.382;2022-12-08T10:35:50;10.97;;;10.74;;
73154;SDS011;61364;52.418;7.382;2022-12-08T10:40:55;13.66;;;13.65;;
73154;SDS011;61364;52.418;7.382;2022-12-08T10:49:25;14.33;;;14.27;;
73154;SDS011;61364;52.418;7.382;2022-12-08T10:54:56;17.55;;;17.55;;
73154;SDS011;61364;52.418;7.382;2022-12-08T11:00:13;9.75;;;9.66;;
73154;SDS011;61364;52.418;7.382;2022-12-08T11:05:31;8.50;;;8.48;;
73154;SDS011;61364;52.418;7.382;2022-12-08T11:07:58;9.21;;;9.07;;
73154;SDS011;61364;52.418;7.382;2022-12-08T11:10:32;8.92;;;8.79;;
73154;SDS011;61364;52.418;7.382;2022-12-08T11:13:12;7.86;;;7.85;;
73154;SDS011;61364;52.418;7.382;2022-12-08T11:15:43;7.45;;;7.44;;
73154;SDS011;61364;52.418;7.382;2022-12-08T11:21:07;7.30;;;6.98;;
73154;SDS011;61364;52.418;7.382;2022-12-08T11:23:35;7.43;;;7.14;;
73154;SDS011;61364;52.418;7.382;2022-12-08T11:26:04;7.23;;;6.99;;
73154;SDS011;61364;52.418;7.382;2022-12-08T11:31:05;6.49;;;6.49;;
73154;SDS011;61364;52.418;7.382;2022-12-08T11:36:38;6.82;;;6.59;;
73154;SDS011;61364;52.418;7.382;2022-12-08T11:41:39;7.56;;;7.47;;
73154;SDS011;61364;52.418;7.382;2022-12-08T11:49:40;7.94;;;7.94;;
73154;SDS011;61364;52.418;7.382;2022-12-08T12:03:43;6.22;;;6.22;;
73154;SDS011;61364;52.418;7.382;2022-12-08T12:06:22;6.67;;;6.52;;
73154;SDS011;61364;52.418;7.382;2022-12-08T12:14:32;5.93;;;5.67;;
73154;SDS011;61364;52.418;7.382;2022-12-08T12:23:36;4.95;;;4.93;;
73154;SDS011;61364;52.418;7.382;2022-12-08T12:32:01;5.23;;;5.18;;
73154;SDS011;61364;52.418;7.382;2022-12-08T12:37:46;6.12;;;6.11;;
73154;SDS011;61364;52.418;7.382;2022-12-08T12:40:17;5.78;;;5.68;;
73154;SDS011;61364;52.418;7.382;2022-12-08T12:51:53;6.48;;;6.28;;
73154;SDS011;61364;52.418;7.382;2022-12-08T12:56:55;6.17;;;6.04;;
73154;SDS011;61364;52.418;7.382;2022-12-08T13:10:23;6.17;;;6.17;;
73154;SDS011;61364;52.418;7.382;2022-12-08T13:18:20;24.16;;;24.16;;
73154;SDS011;61364;52.418;7.382;2022-12-08T13:21:12;20.33;;;20.29;;
73154;SDS011;61364;52.418;7.382;2022-12-08T13:33:41;10.02;;;9.93;;
73154;SDS011;61364;52.418;7.382;2022-12-08T13:41:19;12.81;;;12.76;;
73154;SDS011;61364;52.418;7.382;2022-12-08T13:44:34;16.20;;;16.16;;
73154;SDS011;61364;52.418;7.382;2022-12-08T13:46:43;18.27;;;18.10;;
73154;SDS011;61364;52.418;7.382;2022-12-08T13:49:14;23.62;;;22.77;;
73154;SDS011;61364;52.418;7.382;2022-12-08T13:57:49;16.68;;;16.44;;
73154;SDS011;61364;52.418;7.382;2022-12-08T14:00:19;17.93;;;17.73;;
73154;SDS011;61364;52.418;7.382;2022-12-08T14:02:48;21.09;;;20.92;;
73154;SDS011;61364;52.418;7.382;2022-12-08T14:05:17;20.69;;;20.39;;
73154;SDS011;61364;52.418;7.382;2022-12-08T14:10:30;11.66;;;11.62;;
73154;SDS011;61364;52.418;7.382;2022-12-08T14:16:25;9.11;;;9.11;;
73154;SDS011;61364;52.418;7.382;2022-12-08T14:18:52;8.90;;;8.90;;
73154;SDS011;61364;52.418;7.382;2022-12-08T14:24:10;5.87;;;5.87;;
73154;SDS011;61364;52.418;7.382;2022-12-08T14:26:37;6.38;;;6.38;;
73154;SDS011;61364;52.418;7.382;2022-12-08T14:29:05;7.07;;;7.07;;
73154;SDS011;61364;52.418;7.382;2022-12-08T14:31:35;7.59;;;7.59;;
73154;SDS011;61364;52.418;7.382;2022-12-08T14:34:01;8.61;;;8.61;;
73154;SDS011;61364;52.418;7.382;2022-12-08T14:36:26;7.97;;;7.97;;
73154;SDS011;61364;52.418;7.382;2022-12-08T14:39:01;7.36;;;7.36;;
73154;SDS011;61364;52.418;7.382;2022-12-08T14:41:31;7.89;;;7.89;;
73154;SDS011;61364;52.418;7.382;2022-12-08T14:47:01;8.13;;;8.13;;
73154;SDS011;61364;52.418;7.382;2022-12-08T14:52:18;9.36;;;9.36;;
73154;SDS011;61364;52.418;7.382;2022-12-08T14:55:00;8.85;;;8.85;;
73154;SDS011;61364;52.418;7.382;2022-12-08T14:57:33;8.83;;;8.83;;
73154;SDS011;61364;52.418;7.382;2022-12-08T15:00:05;8.74;;;8.74;;
73154;SDS011;61364;52.418;7.382;2022-12-08T15:02:31;8.09;;;8.09;;
73154;SDS011;61364;52.418;7.382;2022-12-08T15:04:59;8.05;;;8.05;;
73154;SDS011;61364;52.418;7.382;2022-12-08T15:07:27;6.80;;;6.80;;
73154;SDS011;61364;52.418;7.382;2022-12-08T15:10:08;5.63;;;5.63;;
73154;SDS011;61364;52.418;7.382;2022-12-08T15:12:35;5.64;;;5.64;;
73154;SDS011;61364;52.418;7.382;2022-12-08T15:15:13;5.98;;;5.98;;
73154;SDS011;61364;52.418;7.382;2022-12-08T15:17:43;6.32;;;6.32;;
73154;SDS011;61364;52.418;7.382;2022-12-08T15:22:55;6.46;;;6.46;;
73154;SDS011;61364;52.418;7.382;2022-12-08T15:25:21;6.78;;;6.78;;
73154;SDS011;61364;52.418;7.382;2022-12-08T15:28:05;7.21;;;7.21;;
73154;SDS011;61364;52.418;7.382;2022-12-08T15:30:30;6.27;;;6.27;;
73154;SDS011;61364;52.418;7.382;2022-12-08T15:32:57;6.36;;;6.36;;
73154;SDS011;61364;52.418;7.382;2022-12-08T15:35:23;7.48;;;7.48;;
73154;SDS011;61364;52.418;7.382;2022-12-08T15:37:58;7.75;;;7.75;;
73154;SDS011;61364;52.418;7.382;2022-12-08T15:40:29;7.89;;;7.89;;
73154;SDS011;61364;52.418;7.382;2022-12-08T15:43:01;8.73;;;8.73;;
73154;SDS011;61364;52.418;7.382;2022-12-08T15:45:29;8.94;;;8.94;;
73154;SDS011;61364;52.418;7.382;2022-12-08T15:47:57;8.98;;;8.98;;
73154;SDS011;61364;52.418;7.382;2022-12-08T15:52:54;9.71;;;9.71;;
73154;SDS011;61364;52.418;7.382;2022-12-08T15:57:55;9.95;;;9.95;;
73154;SDS011;61364;52.418;7.382;2022-12-08T16:02:49;26.30;;;26.30;;
73154;SDS011;61364;52.418;7.382;2022-12-08T16:05:14;22.32;;;22.32;;
73154;SDS011;61364;52.418;7.382;2022-12-08T16:07:40;19.29;;;19.29;;
73154;SDS011;61364;52.418;7.382;2022-12-08T16:10:06;14.91;;;14.91;;
73154;SDS011;61364;52.418;7.382;2022-12-08T16:12:32;13.82;;;13.82;;
73154;SDS011;61364;52.418;7.382;2022-12-08T16:15:16;11.02;;;11.02;;
73154;SDS011;61364;52.418;7.382;2022-12-08T16:17:42;9.95;;;9.95;;
73154;SDS011;61364;52.418;7.382;2022-12-08T16:20:11;9.45;;;9.45;;
73154;SDS011;61364;52.418;7.382;2022-12-08T16:22:37;8.79;;;8.79;;
73154;SDS011;61364;52.418;7.382;2022-12-08T16:25:08;9.77;;;9.77;;
73154;SDS011;61364;52.418;7.382;2022-12-08T16:27:51;8.75;;;8.75;;
73154;SDS011;61364;52.418;7.382;2022-12-08T16:30:32;8.76;;;8.76;;
73154;SDS011;61364;52.418;7.382;2022-12-08T16:33:08;8.53;;;8.53;;
73154;SDS011;61364;52.418;7.382;2022-12-08T16:35:51;11.77;;;11.77;;
73154;SDS011;61364;52.418;7.382;2022-12-08T16:38:27;9.88;;;9.88;;
73154;SDS011;61364;52.418;7.382;2022-12-08T16:40:56;9.23;;;9.23;;
73154;SDS011;61364;52.418;7.382;2022-12-08T16:43:43;9.17;;;9.17;;
73154;SDS011;61364;52.418;7.382;2022-12-08T16:55:16;14.04;;;14.04;;
73154;SDS011;61364;52.418;7.382;2022-12-08T16:57:51;13.54;;;13.54;;
73154;SDS011;61364;52.418;7.382;2022-12-08T17:00:33;13.18;;;13.18;;
73154;SDS011;61364;52.418;7.382;2022-12-08T17:03:15;12.43;;;12.43;;
73154;SDS011;61364;52.418;7.382;2022-12-08T17:05:50;11.00;;;11.00;;
73154;SDS011;61364;52.418;7.382;2022-12-08T17:08:28;10.67;;;10.67;;
73154;SDS011;61364;52.418;7.382;2022-12-08T17:11:03;10.80;;;10.80;;
73154;SDS011;61364;52.418;7.382;2022-12-08T17:13:55;10.02;;;10.02;;
73154;SDS011;61364;52.418;7.382;2022-12-08T17:16:24;10.18;;;10.18;;
73154;SDS011;61364;52.418;7.382;2022-12-08T17:18:58;10.39;;;10.39;;
73154;SDS011;61364;52.418;7.382;2022-12-08T17:21:30;10.17;;;10.17;;
73154;SDS011;61364;52.418;7.382;2022-12-08T17:24:09;10.39;;;10.39;;
73154;SDS011;61364;52.418;7.382;2022-12-08T17:26:42;12.72;;;12.72;;
73154;SDS011;61364;52.418;7.382;2022-12-08T17:29:15;20.37;;;20.37;;
73154;SDS011;61364;52.418;7.382;2022-12-08T17:31:50;23.51;;;23.51;;
73154;SDS011;61364;52.418;7.382;2022-12-08T17:34:25;21.61;;;21.61;;
73154;SDS011;61364;52.418;7.382;2022-12-08T17:37:11;12.79;;;12.79;;
73154;SDS011;61364;52.418;7.382;2022-12-08T17:39:44;11.61;;;11.61;;
73154;SDS011;61364;52.418;7.382;2022-12-08T17:42:13;11.58;;;11.58;;
73154;SDS011;61364;52.418;7.382;2022-12-08T17:44:42;12.23;;;12.23;;
73154;SDS011;61364;52.418;7.382;2022-12-08T17:47:22;11.41;;;11.41;;
73154;SDS011;61364;52.418;7.382;2022-12-08T17:49:51;10.74;;;10.74;;
73154;SDS011;61364;52.418;7.382;2022-12-08T17:52:27;11.13;;;11.13;;
73154;SDS011;61364;52.418;7.382;2022-12-08T17:54:59;12.04;;;12.04;;
73154;SDS011;61364;52.418;7.382;2022-12-08T17:57:30;10.52;;;10.52;;
73154;SDS011;61364;52.418;7.382;2022-12-08T18:00:02;10.08;;;10.08;;
73154;SDS011;61364;52.418;7.382;2022-12-08T18:02:46;11.35;;;11.35;;
73154;SDS011;61364;52.418;7.382;2022-12-08T18:05:15;11.57;;;11.57;;
73154;SDS011;61364;52.418;7.382;2022-12-08T18:07:45;9.56;;;9.56;;
73154;SDS011;61364;52.418;7.382;2022-12-08T18:10:14;9.51;;;9.51;;
73154;SDS011;61364;52.418;7.382;2022-12-08T18:12:43;10.76;;;10.76;;
73154;SDS011;61364;52.418;7.382;2022-12-08T18:15:12;14.74;;;14.74;;
73154;SDS011;61364;52.418;7.382;2022-12-08T18:17:42;15.44;;;15.44;;
73154;SDS011;61364;52.418;7.382;2022-12-08T18:20:09;11.67;;;11.67;;
73154;SDS011;61364;52.418;7.382;2022-12-08T18:22:35;12.17;;;12.17;;
73154;SDS011;61364;52.418;7.382;2022-12-08T18:25:02;9.87;;;9.87;;
73154;SDS011;61364;52.418;7.382;2022-12-08T18:27:28;9.53;;;9.53;;
73154;SDS011;61364;52.418;7.382;2022-12-08T18:29:54;8.76;;;8.76;;
73154;SDS011;61364;52.418;7.382;2022-12-08T18:32:19;8.44;;;8.44;;
73154;SDS011;61364;52.418;7.382;2022-12-08T18:34:48;8.52;;;8.52;;
73154;SDS011;61364;52.418;7.382;2022-12-08T18:37:14;7.93;;;7.93;;
73154;SDS011;61364;52.418;7.382;2022-12-08T18:39:40;8.27;;;8.27;;
73154;SDS011;61364;52.418;7.382;2022-12-08T18:42:06;8.19;;;8.19;;
73154;SDS011;61364;52.418;7.382;2022-12-08T18:44:47;7.87;;;7.87;;
73154;SDS011;61364;52.418;7.382;2022-12-08T18:47:13;8.31;;;8.31;;
73154;SDS011;61364;52.418;7.382;2022-12-08T18:49:40;7.81;;;7.81;;
73154;SDS011;61364;52.418;7.382;2022-12-08T18:52:06;8.14;;;8.14;;
73154;SDS011;61364;52.418;7.382;2022-12-08T18:54:31;8.90;;;8.90;;
73154;SDS011;61364;52.418;7.382;2022-12-08T18:56:57;8.52;;;8.52;;
73154;SDS011;61364;52.418;7.382;2022-12-08T18:59:23;8.63;;;8.63;;
73154;SDS011;61364;52.418;7.382;2022-12-08T19:01:48;8.54;;;8.54;;
73154;SDS011;61364;52.418;7.382;2022-12-08T19:04:14;9.65;;;9.65;;
73154;SDS011;61364;52.418;7.382;2022-12-08T19:06:40;10.44;;;10.44;;
73154;SDS011;61364;52.418;7.382;2022-12-08T19:09:06;10.46;;;10.46;;
73154;SDS011;61364;52.418;7.382;2022-12-08T19:11:32;11.15;;;11.15;;
73154;SDS011;61364;52.418;7.382;2022-12-08T19:13:57;12.37;;;12.37;;
73154;SDS011;61364;52.418;7.382;2022-12-08T19:16:23;11.94;;;11.94;;
73154;SDS011;61364;52.418;7.382;2022-12-08T19:18:49;12.81;;;12.81;;
73154;SDS011;61364;52.418;7.382;2022-12-08T19:21:15;12.62;;;12.62;;
73154;SDS011;61364;52.418;7.382;2022-12-08T19:23:40;12.60;;;12.60;;
73154;SDS011;61364;52.418;7.382;2022-12-08T19:26:06;13.93;;;13.93;;
73154;SDS011;61364;52.418;7.382;2022-12-08T19:28:33;12.70;;;12.70;;
73154;SDS011;61364;52.418;7.382;2022-12-08T19:31:03;9.70;;;9.70;;
73154;SDS011;61364;52.418;7.382;2022-12-08T19:33:29;8.42;;;8.42;;
73154;SDS011;61364;52.418;7.382;2022-12-08T19:35:55;7.99;;;7.99;;
73154;SDS011;61364;52.418;7.382;2022-12-08T19:38:21;8.85;;;8.85;;
73154;SDS011;61364;52.418;7.382;2022-12-08T19:40:47;11.17;;;11.17;;
73154;SDS011;61364;52.418;7.382;2022-12-08T19:43:31;15.51;;;15.51;;
73154;SDS011;61364;52.418;7.382;2022-12-08T19:46:15;13.42;;;13.42;;
73154;SDS011;61364;52.418;7.382;2022-12-08T19:48:41;13.79;;;13.79;;
73154;SDS011;61364;52.418;7.382;2022-12-08T19:51:07;15.28;;;15.28;;
73154;SDS011;61364;52.418;7.382;2022-12-08T19:53:32;15.66;;;15.66;;
73154;SDS011;61364;52.418;7.382;2022-12-08T19:55:58;13.96;;;13.96;;
73154;SDS011;61364;52.418;7.382;2022-12-08T19:58:24;11.94;;;11.94;;
73154;SDS011;61364;52.418;7.382;2022-12-08T20:00:50;10.81;;;10.81;;
73154;SDS011;61364;52.418;7.382;2022-12-08T20:03:18;9.65;;;9.65;;
73154;SDS011;61364;52.418;7.382;2022-12-08T20:05:45;10.37;;;10.37;;
73154;SDS011;61364;52.418;7.382;2022-12-08T20:08:13;15.08;;;15.08;;
73154;SDS011;61364;52.418;7.382;2022-12-08T20:10:39;16.21;;;16.20;;
73154;SDS011;61364;52.418;7.382;2022-12-08T20:13:06;17.81;;;17.81;;
73154;SDS011;61364;52.418;7.382;2022-12-08T20:15:51;19.16;;;19.16;;
73154;SDS011;61364;52.418;7.382;2022-12-08T20:18:17;17.34;;;17.34;;
73154;SDS011;61364;52.418;7.382;2022-12-08T20:20:43;29.67;;;29.67;;
73154;SDS011;61364;52.418;7.382;2022-12-08T20:23:10;39.44;;;39.40;;
73154;SDS011;61364;52.418;7.382;2022-12-08T20:25:36;32.43;;;32.43;;
73154;SDS011;61364;52.418;7.382;2022-12-08T20:28:04;28.00;;;28.00;;
73154;SDS011;61364;52.418;7.382;2022-12-08T20:30:30;25.15;;;25.15;;
73154;SDS011;61364;52.418;7.382;2022-12-08T20:32:55;22.96;;;22.96;;
73154;SDS011;61364;52.418;7.382;2022-12-08T20:35:21;24.01;;;24.01;;
73154;SDS011;61364;52.418;7.382;2022-12-08T20:37:47;24.26;;;24.26;;
73154;SDS011;61364;52.418;7.382;2022-12-08T20:40:12;30.32;;;30.32;;